createdAt,value
2023-05-01T00:02:14.196Z,10.30
2023-05-01T00:04:42.618Z,10.27
2023-05-01T00:07:11.201Z,10.24
2023-05-01T00:09:39.685Z,10.20
2023-05-01T00:12:09.288Z,10.12
2023-05-01T00:14:37.512Z,10.02
2023-05-01T00:17:06.356Z,9.96
2023-05-01T00:19:34.681Z,9.92
2023-05-01T00:22:03.704Z,9.89
2023-05-01T00:24:32.204Z,9.86
2023-05-01T00:27:00.544Z,9.83
2023-05-01T00:29:30.714Z,9.77
2023-05-01T00:31:59.024Z,9.74
2023-05-01T00:34:27.283Z,9.70
2023-05-01T00:36:55.633Z,9.63
2023-05-01T00:39:23.884Z,9.60
2023-05-01T00:41:52.345Z,9.57
2023-05-01T00:44:20.618Z,9.55
2023-05-01T00:46:52.580Z,9.55
2023-05-01T00:49:22.035Z,9.52
2023-05-01T00:51:53.346Z,9.49
2023-05-01T00:54:23.287Z,9.46
2023-05-01T00:56:53.042Z,9.41
2023-05-01T00:59:21.809Z,9.39
2023-05-01T01:04:20.601Z,9.35
2023-05-01T01:06:55.793Z,9.32
2023-05-01T01:09:33.568Z,9.29
2023-05-01T01:12:12.739Z,9.26
2023-05-01T01:14:49.406Z,9.22
2023-05-01T01:17:29.849Z,9.17
2023-05-01T01:20:30.383Z,9.15
2023-05-01T01:23:15.188Z,9.17
2023-05-01T01:26:07.385Z,9.12
2023-05-01T01:29:00.664Z,9.10
2023-05-01T01:31:39.435Z,9.10
2023-05-01T01:34:16.270Z,9.05
2023-05-01T01:36:53.074Z,9.03
2023-05-01T01:39:30.602Z,9.04
2023-05-01T01:42:01.690Z,9.01
2023-05-01T01:44:35.070Z,8.96
2023-05-01T01:47:06.487Z,8.94
2023-05-01T01:49:40.014Z,8.92
2023-05-01T01:52:11.588Z,8.93
2023-05-01T01:54:44.891Z,8.91
2023-05-01T01:57:17.795Z,8.89
2023-05-01T01:59:48.296Z,8.85
2023-05-01T02:02:20.002Z,8.79
2023-05-01T02:04:51.420Z,8.75
2023-05-01T02:07:21.102Z,8.71
2023-05-01T02:09:51.812Z,8.68
2023-05-01T02:12:22.696Z,8.65
2023-05-01T02:14:53.130Z,8.61
2023-05-01T02:17:22.558Z,8.58
2023-05-01T02:19:55.494Z,8.56
2023-05-01T02:22:26.224Z,8.50
2023-05-01T02:24:55.841Z,8.46
2023-05-01T02:27:27.948Z,8.42
2023-05-01T02:29:56.424Z,8.38
2023-05-01T02:32:24.932Z,8.28
2023-05-01T02:34:55.187Z,8.23
2023-05-01T02:37:23.524Z,8.21
2023-05-01T02:39:51.834Z,8.17
2023-05-01T02:42:23.611Z,8.12
2023-05-01T02:44:57.032Z,8.10
2023-05-01T02:47:27.539Z,8.04
2023-05-01T02:49:59.052Z,7.96
2023-05-01T02:52:28.637Z,7.92
2023-05-01T02:54:57.722Z,7.91
2023-05-01T02:57:26.201Z,7.92
2023-05-01T02:59:54.878Z,7.90
2023-05-01T03:02:23.273Z,7.91
2023-05-01T03:04:51.646Z,7.94
2023-05-01T03:07:21.448Z,7.94
2023-05-01T03:09:50.139Z,7.95
2023-05-01T03:12:18.451Z,7.95
2023-05-01T03:14:46.724Z,7.97
2023-05-01T03:17:14.887Z,7.98
2023-05-01T03:19:43.238Z,8.01
2023-05-01T03:22:11.441Z,8.01
2023-05-01T03:24:41.128Z,8.02
2023-05-01T03:27:09.418Z,8.05
2023-05-01T03:29:38.298Z,8.05
2023-05-01T03:32:07.368Z,8.09
2023-05-01T03:34:35.739Z,8.07
2023-05-01T03:37:04.040Z,8.08
2023-05-01T03:39:32.163Z,8.09
2023-05-01T03:42:01.617Z,8.10
2023-05-01T03:44:29.904Z,8.14
2023-05-01T03:46:58.141Z,8.15
2023-05-01T03:49:26.375Z,8.15
2023-05-01T03:51:54.535Z,8.21
2023-05-01T03:54:22.917Z,8.26
2023-05-01T03:56:51.463Z,8.32
2023-05-01T03:59:21.054Z,8.31
2023-05-01T04:01:49.824Z,8.31
2023-05-01T04:04:18.042Z,8.35
2023-05-01T04:06:48.777Z,8.45
2023-05-01T04:09:16.987Z,8.52
2023-05-01T04:11:45.177Z,8.57
2023-05-01T04:14:13.418Z,8.66
2023-05-01T04:16:43.372Z,8.74
2023-05-01T04:19:11.768Z,8.83
2023-05-01T04:21:40.511Z,8.91
2023-05-01T04:24:08.960Z,8.97
2023-05-01T04:26:36.977Z,9.07
2023-05-01T04:29:05.483Z,9.18
2023-05-01T04:31:34.825Z,9.30
2023-05-01T04:34:04.651Z,9.44
2023-05-01T04:36:33.189Z,9.55
2023-05-01T04:39:01.234Z,9.67
2023-05-01T04:41:29.441Z,9.81
2023-05-01T04:43:57.782Z,9.94
2023-05-01T04:46:26.145Z,10.08
2023-05-01T04:48:54.426Z,10.21
2023-05-01T04:51:24.244Z,10.36
2023-05-01T04:53:52.547Z,10.48
2023-05-01T04:56:21.509Z,10.63
2023-05-01T04:58:49.678Z,10.72
2023-05-01T05:01:17.761Z,10.83
2023-05-01T05:03:49.653Z,10.96
2023-05-01T05:06:18.723Z,11.10
2023-05-01T05:08:52.028Z,11.25
2023-05-01T05:11:20.853Z,11.39
2023-05-01T05:13:48.963Z,11.57
2023-05-01T05:16:17.572Z,11.71
2023-05-01T05:18:46.178Z,11.82
2023-05-01T05:21:14.281Z,12.01
2023-05-01T05:23:42.410Z,12.16
2023-05-01T05:26:12.060Z,12.29
2023-05-01T05:28:40.978Z,12.41
2023-05-01T05:31:09.157Z,12.51
2023-05-01T05:33:37.301Z,12.59
2023-05-01T05:36:05.683Z,12.68
2023-05-01T05:38:33.771Z,12.77
2023-05-01T05:41:02.008Z,12.90
2023-05-01T05:43:32.405Z,13.08
2023-05-01T05:46:01.259Z,13.20
2023-05-01T05:48:29.592Z,13.33
2023-05-01T05:50:58.007Z,13.40
2023-05-01T05:53:26.662Z,13.51
2023-05-01T05:55:55.085Z,13.63
2023-05-01T05:58:26.119Z,13.79
2023-05-01T06:00:56.733Z,13.98
2023-05-01T06:03:25.146Z,14.18
2023-05-01T06:05:53.572Z,14.31
2023-05-01T06:08:22.209Z,14.48
2023-05-01T06:10:50.305Z,14.57
2023-05-01T06:13:18.467Z,14.63
2023-05-01T06:15:47.349Z,14.71
2023-05-01T06:18:17.117Z,14.83
2023-05-01T06:20:45.490Z,14.98
2023-05-01T06:23:13.984Z,15.09
2023-05-01T06:25:42.844Z,15.25
2023-05-01T06:28:11.120Z,15.42
2023-05-01T06:30:39.341Z,15.54
2023-05-01T06:33:07.537Z,15.66
2023-05-01T06:35:37.231Z,15.72
2023-05-01T06:38:05.471Z,15.79
2023-05-01T06:40:34.952Z,15.92
2023-05-01T06:43:03.389Z,16.03
2023-05-01T06:45:32.143Z,16.19
2023-05-01T06:48:00.658Z,16.34
2023-05-01T06:50:29.521Z,16.48
2023-05-01T06:53:01.051Z,16.57
2023-05-01T06:55:31.747Z,16.69
2023-05-01T06:58:02.717Z,16.78
2023-05-01T07:00:35.754Z,16.90
2023-05-01T07:03:04.191Z,17.00
2023-05-01T07:05:32.397Z,17.08
2023-05-01T07:08:02.785Z,17.12
2023-05-01T07:10:31.172Z,17.21
2023-05-01T07:12:59.692Z,17.25
2023-05-01T07:15:28.126Z,17.34
2023-05-01T07:17:58.475Z,17.37
2023-05-01T07:20:27.089Z,17.41
2023-05-01T07:22:55.267Z,17.53
2023-05-01T07:25:25.167Z,17.60
2023-05-01T07:27:54.411Z,17.65
2023-05-01T07:30:22.864Z,17.69
2023-05-01T07:32:51.098Z,17.69
2023-05-01T07:35:19.453Z,17.71
2023-05-01T07:37:47.901Z,17.72
2023-05-01T07:40:16.229Z,17.77
2023-05-01T07:42:45.858Z,17.79
2023-05-01T07:45:14.566Z,17.94
2023-05-01T07:47:43.072Z,18.05
2023-05-01T07:50:11.728Z,18.14
2023-05-01T07:52:40.009Z,18.24
2023-05-01T07:55:09.355Z,18.26
2023-05-01T07:57:37.689Z,18.33
2023-05-01T08:00:08.601Z,18.44
2023-05-01T08:02:36.863Z,18.46
2023-05-01T08:05:05.249Z,18.54
2023-05-01T08:07:33.317Z,18.60
2023-05-01T08:10:01.689Z,18.67
2023-05-01T08:12:31.366Z,18.68
2023-05-01T08:14:59.577Z,18.68
2023-05-01T08:17:29.113Z,18.76
2023-05-01T08:19:57.793Z,18.88
2023-05-01T08:22:26.111Z,18.96
2023-05-01T08:24:54.146Z,19.03
2023-05-01T08:27:22.462Z,19.03
2023-05-01T08:29:50.700Z,19.10
2023-05-01T08:32:19.923Z,19.24
2023-05-01T08:34:49.626Z,19.33
2023-05-01T08:37:19.221Z,19.42
2023-05-01T08:39:47.267Z,19.58
2023-05-01T08:42:15.517Z,19.67
2023-05-01T08:44:44.202Z,19.71
2023-05-01T08:47:16.913Z,19.78
2023-05-01T08:49:46.724Z,19.96
2023-05-01T08:52:16.962Z,20.19
2023-05-01T08:54:46.994Z,20.27
2023-05-01T08:57:15.372Z,20.31
2023-05-01T08:59:43.504Z,20.38
2023-05-01T09:02:12.188Z,20.40
2023-05-01T09:04:42.432Z,20.33
2023-05-01T09:07:10.707Z,20.41
2023-05-01T09:09:40.306Z,20.49
2023-05-01T09:12:17.773Z,20.58
2023-05-01T09:14:46.496Z,20.71
2023-05-01T09:17:15.192Z,20.73
2023-05-01T09:19:43.419Z,20.81
2023-05-01T09:22:11.626Z,21.01
2023-05-01T09:24:41.201Z,21.14
2023-05-01T09:27:09.787Z,21.16
2023-05-01T09:29:42.277Z,21.20
2023-05-01T09:32:18.085Z,21.18
2023-05-01T09:34:46.319Z,21.29
2023-05-01T09:37:27.657Z,21.40
2023-05-01T09:40:11.465Z,21.44
2023-05-01T09:42:41.038Z,21.61
2023-05-01T09:45:15.722Z,21.68
2023-05-01T09:47:44.058Z,21.81
2023-05-01T09:50:13.924Z,21.84
2023-05-01T09:52:52.486Z,21.88
2023-05-01T09:55:25.373Z,22.02
2023-05-01T09:57:54.000Z,22.10
2023-05-01T10:00:22.596Z,22.14
2023-05-01T10:02:51.445Z,22.28
2023-05-01T10:05:20.445Z,22.30
2023-05-01T10:07:59.104Z,22.27
2023-05-01T10:10:29.456Z,22.34
2023-05-01T10:12:57.998Z,22.39
2023-05-01T10:15:38.055Z,22.47
2023-05-01T10:18:06.336Z,22.62
2023-05-01T10:20:34.581Z,22.55
2023-05-01T10:23:03.830Z,22.54
2023-05-01T10:25:34.040Z,22.72
2023-05-01T10:28:05.023Z,22.82
2023-05-01T10:30:33.976Z,22.92
2023-05-01T10:33:02.222Z,23.06
2023-05-01T10:35:35.711Z,23.18
2023-05-01T10:38:06.152Z,23.22
2023-05-01T10:40:49.973Z,23.35
2023-05-01T10:43:21.084Z,23.57
2023-05-01T10:45:49.910Z,23.68
2023-05-01T10:48:54.148Z,23.52
2023-05-01T10:51:26.487Z,23.37
2023-05-01T10:54:24.425Z,23.29
2023-05-01T10:56:54.951Z,23.48
2023-05-01T10:59:22.900Z,23.70
2023-05-01T11:01:53.062Z,23.88
2023-05-01T11:04:51.618Z,24.01
2023-05-01T11:07:20.872Z,24.15
2023-05-01T11:09:54.336Z,24.17
2023-05-01T11:12:53.633Z,23.98
2023-05-01T11:15:29.718Z,24.02
2023-05-01T11:17:58.509Z,24.08
2023-05-01T11:20:49.752Z,24.24
2023-05-01T11:23:21.842Z,24.46
2023-05-01T11:25:52.735Z,24.61
2023-05-01T11:28:22.935Z,24.81
2023-05-01T11:30:51.257Z,25.00
2023-05-01T11:33:26.346Z,25.13
2023-05-01T11:36:05.007Z,25.23
2023-05-01T11:38:33.330Z,25.35
2023-05-01T11:41:05.449Z,25.44
2023-05-01T11:43:34.884Z,25.59
2023-05-01T11:46:04.110Z,25.70
2023-05-01T11:48:32.655Z,25.82
2023-05-01T11:51:00.752Z,25.93
2023-05-01T11:53:29.169Z,26.01
2023-05-01T11:55:59.583Z,26.00
2023-05-01T11:58:36.991Z,25.94
2023-05-01T12:01:07.559Z,25.96
2023-05-01T12:03:45.828Z,25.93
2023-05-01T12:06:15.168Z,26.00
2023-05-01T12:08:45.447Z,26.06
2023-05-01T12:11:14.123Z,26.11
2023-05-01T12:13:44.119Z,26.00
2023-05-01T12:16:12.881Z,25.94
2023-05-01T12:18:41.361Z,25.87
2023-05-01T12:21:17.924Z,25.87
2023-05-01T12:23:46.276Z,25.91
2023-05-01T12:26:18.359Z,25.95
2023-05-01T12:28:58.446Z,26.12
2023-05-01T12:31:27.721Z,26.15
2023-05-01T12:33:57.612Z,26.27
2023-05-01T12:36:27.571Z,26.50
2023-05-01T12:39:05.275Z,26.54
2023-05-01T12:41:35.559Z,26.51
2023-05-01T12:44:16.099Z,26.59
2023-05-01T12:46:44.583Z,26.89
2023-05-01T12:49:18.793Z,27.37
2023-05-01T12:51:49.996Z,27.83
2023-05-01T12:54:22.331Z,28.58
2023-05-01T12:56:50.812Z,29.59
2023-05-01T12:59:24.713Z,31.02
2023-05-01T13:02:00.576Z,32.97
2023-05-01T13:04:29.555Z,35.30
2023-05-01T13:06:58.918Z,37.34
2023-05-01T13:09:30.767Z,39.20
2023-05-01T13:12:00.879Z,41.17
2023-05-01T13:14:30.899Z,42.96
2023-05-01T13:16:59.183Z,44.04
2023-05-01T13:19:29.018Z,45.16
2023-05-01T13:21:58.751Z,46.24
2023-05-01T13:24:37.823Z,47.13
2023-05-01T13:27:06.391Z,47.24
2023-05-01T13:29:36.411Z,46.92
2023-05-01T13:32:06.373Z,46.73
2023-05-01T13:34:37.654Z,47.23
2023-05-01T13:37:05.858Z,47.74
2023-05-01T13:39:34.077Z,48.11
2023-05-01T13:42:06.487Z,48.72
2023-05-01T13:44:44.512Z,49.54
2023-05-01T13:47:17.547Z,50.28
2023-05-01T13:49:46.649Z,49.97
2023-05-01T13:52:18.402Z,48.81
2023-05-01T13:54:47.645Z,49.06
2023-05-01T13:57:17.470Z,48.85
2023-05-01T13:59:48.442Z,48.36
2023-05-01T14:02:21.926Z,48.66
2023-05-01T14:04:50.367Z,49.33
2023-05-01T14:07:20.143Z,49.07
2023-05-01T14:09:53.846Z,49.54
2023-05-01T14:12:27.557Z,50.25
2023-05-01T14:14:57.370Z,50.90
2023-05-01T14:17:31.520Z,51.30
2023-05-01T14:19:59.949Z,51.70
2023-05-01T14:22:30.757Z,52.04
2023-05-01T14:24:59.542Z,52.41
2023-05-01T14:27:27.980Z,52.64
2023-05-01T14:29:57.461Z,52.43
2023-05-01T14:32:26.313Z,52.46
2023-05-01T14:34:54.440Z,52.73
2023-05-01T14:37:22.543Z,52.69
2023-05-01T14:39:50.844Z,52.61
2023-05-01T14:42:18.920Z,52.65
2023-05-01T14:44:47.037Z,52.74
2023-05-01T14:47:21.919Z,52.75
2023-05-01T14:49:54.489Z,52.66
2023-05-01T14:52:22.612Z,52.59
2023-05-01T14:54:52.923Z,52.58
2023-05-01T14:57:21.052Z,52.65
2023-05-01T14:59:49.220Z,52.63
2023-05-01T15:02:18.692Z,52.67
2023-05-01T15:04:46.801Z,52.55
2023-05-01T15:07:15.498Z,52.52
2023-05-01T15:09:46.388Z,52.45
2023-05-01T15:12:14.583Z,52.30
2023-05-01T15:14:42.714Z,52.12
2023-05-01T15:17:10.850Z,51.94
2023-05-01T15:19:40.341Z,51.74
2023-05-01T15:22:08.560Z,51.56
2023-05-01T15:24:36.676Z,51.56
2023-05-01T15:27:04.954Z,51.47
2023-05-01T15:29:36.018Z,51.38
2023-05-01T15:32:12.099Z,51.28
2023-05-01T15:34:42.990Z,50.91
2023-05-01T15:37:11.156Z,50.45
2023-05-01T15:39:40.490Z,50.45
2023-05-01T15:42:08.663Z,50.30
2023-05-01T15:44:36.891Z,50.10
2023-05-01T15:47:05.021Z,49.85
2023-05-01T15:49:33.185Z,49.59
2023-05-01T15:52:03.046Z,49.39
2023-05-01T15:54:31.151Z,49.13
2023-05-01T15:57:01.465Z,48.94
2023-05-01T15:59:29.616Z,48.66
2023-05-01T16:01:57.823Z,48.42
2023-05-01T16:04:26.004Z,48.18
2023-05-01T16:06:54.366Z,47.93
2023-05-01T16:09:30.121Z,47.63
2023-05-01T16:11:59.609Z,47.23
2023-05-01T16:14:27.982Z,46.92
2023-05-01T16:16:56.280Z,46.42
2023-05-01T16:19:24.732Z,45.97
2023-05-01T16:21:52.891Z,45.60
2023-05-01T16:24:21.041Z,45.21
2023-05-01T16:26:50.778Z,44.73
2023-05-01T16:29:19.819Z,44.36
2023-05-01T16:31:48.379Z,43.92
2023-05-01T16:34:18.311Z,43.47
2023-05-01T16:36:47.628Z,42.59
2023-05-01T16:39:19.282Z,41.63
2023-05-01T16:41:48.968Z,40.96
2023-05-01T16:44:20.102Z,40.38
2023-05-01T16:46:53.553Z,39.85
2023-05-01T16:49:22.090Z,39.23
2023-05-01T16:51:50.702Z,38.53
2023-05-01T16:54:19.341Z,37.93
2023-05-01T16:56:47.514Z,37.38
2023-05-01T16:59:15.593Z,36.62
2023-05-01T17:01:45.256Z,35.79
2023-05-01T17:04:15.118Z,34.84
2023-05-01T17:06:46.646Z,33.90
2023-05-01T17:09:14.918Z,32.87
2023-05-01T17:11:43.189Z,31.73
2023-05-01T17:14:11.464Z,30.56
2023-05-01T17:16:40.432Z,29.53
2023-05-01T17:19:10.180Z,28.55
2023-05-01T17:21:38.287Z,27.70
2023-05-01T17:24:06.800Z,26.91
2023-05-01T17:26:34.992Z,26.19
2023-05-01T17:29:04.363Z,25.54
2023-05-01T17:31:33.101Z,24.93
2023-05-01T17:34:01.224Z,24.37
2023-05-01T17:36:30.701Z,23.89
2023-05-01T17:39:00.260Z,23.30
2023-05-01T17:41:28.463Z,22.73
2023-05-01T17:43:56.627Z,22.18
2023-05-01T17:46:24.880Z,21.70
2023-05-01T17:48:53.575Z,21.28
2023-05-01T17:51:21.739Z,20.80
2023-05-01T17:53:51.238Z,20.45
2023-05-01T17:56:19.400Z,20.19
2023-05-01T17:58:50.275Z,19.95
2023-05-01T18:01:18.614Z,19.70
2023-05-01T18:03:48.990Z,19.46
2023-05-01T18:06:18.037Z,19.23
2023-05-01T18:08:46.314Z,19.01
2023-05-01T18:11:15.860Z,18.77
2023-05-01T18:13:47.433Z,18.52
2023-05-01T18:16:16.095Z,18.33
2023-05-01T18:18:44.600Z,18.13
2023-05-01T18:21:13.089Z,17.97
2023-05-01T18:23:41.229Z,17.83
2023-05-01T18:26:09.351Z,17.74
2023-05-01T18:28:39.112Z,17.64
2023-05-01T18:31:07.513Z,17.56
2023-05-01T18:33:36.471Z,17.49
2023-05-01T18:36:04.908Z,17.44
2023-05-01T18:38:33.476Z,17.41
2023-05-01T18:41:01.870Z,17.35
2023-05-01T18:43:30.011Z,17.30
2023-05-01T18:46:00.742Z,17.25
2023-05-01T18:48:28.929Z,17.20
2023-05-01T18:51:07.815Z,17.07
2023-05-01T18:53:37.680Z,16.96
2023-05-01T18:56:06.367Z,16.84
2023-05-01T18:58:34.473Z,16.75
2023-05-01T19:01:04.031Z,16.68
2023-05-01T19:03:32.189Z,16.61
2023-05-01T19:06:00.312Z,16.51
2023-05-01T19:08:28.426Z,16.40
2023-05-01T19:10:56.539Z,16.34
2023-05-01T19:13:24.652Z,16.28
2023-05-01T19:15:53.569Z,16.19
2023-05-01T19:18:23.142Z,16.09
2023-05-01T19:20:51.317Z,16.02
2023-05-01T19:23:19.394Z,15.94
2023-05-01T19:25:47.472Z,15.89
2023-05-01T19:28:15.799Z,15.84
2023-05-01T19:30:43.937Z,15.77
2023-05-01T19:33:12.234Z,15.73
2023-05-01T19:35:41.883Z,15.57
2023-05-01T19:38:09.994Z,15.44
2023-05-01T19:40:39.731Z,15.34
2023-05-01T19:43:07.942Z,15.31
2023-05-01T19:45:36.719Z,15.29
2023-05-01T19:48:06.152Z,15.25
2023-05-01T19:50:34.357Z,15.18
2023-05-01T19:53:05.348Z,15.13
2023-05-01T19:55:33.640Z,15.06
2023-05-01T19:58:01.679Z,15.01
2023-05-01T20:00:29.626Z,14.95
2023-05-01T20:02:57.796Z,14.88
2023-05-01T20:05:28.616Z,14.78
2023-05-01T20:07:58.021Z,14.70
2023-05-01T20:10:27.910Z,14.59
2023-05-01T20:12:56.448Z,14.49
2023-05-01T20:15:24.672Z,14.39
2023-05-01T20:17:52.910Z,14.29
2023-05-01T20:20:21.717Z,14.24
2023-05-01T20:22:52.839Z,14.20
2023-05-01T20:25:20.968Z,14.19
2023-05-01T20:27:50.473Z,14.18
2023-05-01T20:30:18.903Z,14.22
2023-05-01T20:32:48.060Z,14.24
2023-05-01T20:35:16.421Z,14.24
2023-05-01T20:37:44.553Z,14.25
2023-05-01T20:40:13.888Z,14.25
2023-05-01T20:42:43.084Z,14.25
2023-05-01T20:45:15.975Z,14.18
2023-05-01T20:47:44.257Z,14.14
2023-05-01T20:50:12.944Z,14.07
2023-05-01T20:52:41.349Z,13.95
2023-05-01T20:55:10.839Z,13.86
2023-05-01T20:57:51.866Z,13.79
2023-05-01T21:00:22.303Z,13.69
2023-05-01T21:02:52.336Z,13.64
2023-05-01T21:05:20.689Z,13.58
2023-05-01T21:07:49.394Z,13.51
2023-05-01T21:10:17.996Z,13.43
2023-05-01T21:12:46.512Z,13.37
2023-05-01T21:15:15.125Z,13.30
2023-05-01T21:17:45.025Z,13.24
2023-05-01T21:20:17.160Z,13.19
2023-05-01T21:22:48.394Z,13.14
2023-05-01T21:25:17.812Z,13.10
2023-05-01T21:27:46.052Z,13.07
2023-05-01T21:30:17.130Z,13.04
2023-05-01T21:32:47.618Z,12.99
2023-05-01T21:35:19.284Z,12.97
2023-05-01T21:37:49.357Z,12.93
2023-05-01T21:40:17.880Z,12.90
2023-05-01T21:42:46.428Z,12.89
2023-05-01T21:45:17.755Z,12.88
2023-05-01T21:47:50.665Z,12.81
2023-05-01T21:50:20.416Z,12.77
2023-05-01T21:52:49.823Z,12.75
2023-05-01T21:55:19.994Z,12.71
2023-05-01T21:57:49.975Z,12.64
2023-05-01T22:00:19.260Z,12.58
2023-05-01T22:02:51.238Z,12.51
2023-05-01T22:05:22.711Z,12.43
2023-05-01T22:07:52.825Z,12.39
2023-05-01T22:10:21.419Z,12.34
2023-05-01T22:12:50.331Z,12.30
2023-05-01T22:15:18.667Z,12.28
2023-05-01T22:17:48.447Z,12.29
2023-05-01T22:20:16.781Z,12.29
2023-05-01T22:22:44.905Z,12.26
2023-05-01T22:25:13.516Z,12.26
2023-05-01T22:27:44.906Z,12.22
2023-05-01T22:30:13.943Z,12.17
2023-05-01T22:32:42.122Z,12.10
2023-05-01T22:35:12.076Z,12.05
2023-05-01T22:37:40.576Z,12.02
2023-05-01T22:40:09.714Z,11.98
2023-05-01T22:42:38.287Z,11.91
2023-05-01T22:45:07.510Z,11.90
2023-05-01T22:47:36.143Z,11.89
2023-05-01T22:50:05.340Z,11.86
2023-05-01T22:52:35.061Z,11.82
2023-05-01T22:55:03.300Z,11.78
2023-05-01T22:57:31.826Z,11.69
2023-05-01T23:00:00.254Z,11.62
2023-05-01T23:02:29.360Z,11.60
2023-05-01T23:04:57.855Z,11.57
2023-05-01T23:07:26.016Z,11.54
2023-05-01T23:09:57.549Z,11.47
2023-05-01T23:12:26.654Z,11.40
2023-05-01T23:14:56.605Z,11.33
2023-05-01T23:17:25.114Z,11.27
2023-05-01T23:19:54.776Z,11.21
2023-05-01T23:22:23.518Z,11.18
2023-05-01T23:24:51.723Z,11.15
2023-05-01T23:27:23.032Z,11.12
2023-05-01T23:29:56.588Z,11.11
2023-05-01T23:32:27.909Z,11.08
2023-05-01T23:35:01.298Z,11.04
2023-05-01T23:37:29.744Z,10.98
2023-05-01T23:40:01.097Z,10.89
2023-05-01T23:42:31.193Z,10.81
2023-05-01T23:44:59.930Z,10.74
2023-05-01T23:47:29.166Z,10.72
2023-05-01T23:50:00.723Z,10.70
2023-05-01T23:52:31.222Z,10.67
2023-05-01T23:54:59.512Z,10.66
2023-05-01T23:57:27.685Z,10.66
2023-05-01T23:59:57.462Z,10.65
